createdAt,value
2023-03-22T00:02:17.147Z,54.60
2023-03-22T00:04:45.273Z,54.80
2023-03-22T00:07:13.221Z,54.70
2023-03-22T00:09:41.431Z,54.70
2023-03-22T00:12:09.539Z,54.70
2023-03-22T00:14:37.678Z,54.70
2023-03-22T00:17:05.768Z,54.80
2023-03-22T00:19:35.259Z,54.70
2023-03-22T00:22:03.566Z,54.80
2023-03-22T00:24:31.506Z,54.90
2023-03-22T00:27:00.204Z,54.80
2023-03-22T00:29:28.383Z,54.80
2023-03-22T00:31:56.536Z,54.90
2023-03-22T00:34:24.699Z,55.30
2023-03-22T00:36:56.343Z,55.40
2023-03-22T00:39:24.468Z,55.40
2023-03-22T00:41:52.422Z,55.30
2023-03-22T00:44:20.737Z,55.30
2023-03-22T00:46:48.694Z,55.20
2023-03-22T00:49:16.607Z,55.20
2023-03-22T00:51:44.782Z,55.20
2023-03-22T00:54:14.782Z,55.20
2023-03-22T00:56:45.513Z,55.20
2023-03-22T00:59:15.393Z,55.20
2023-03-22T01:01:44.721Z,55.20
2023-03-22T01:04:18.107Z,55.30
2023-03-22T01:06:47.162Z,55.70
2023-03-22T01:09:16.459Z,55.70
2023-03-22T01:11:45.616Z,55.60
2023-03-22T01:14:13.729Z,55.60
2023-03-22T01:16:41.976Z,55.70
2023-03-22T01:19:10.706Z,55.80
2023-03-22T01:21:39.201Z,55.70
2023-03-22T01:24:07.766Z,55.60
2023-03-22T01:26:37.664Z,55.70
2023-03-22T01:29:06.688Z,56.00
2023-03-22T01:31:34.759Z,55.90
2023-03-22T01:34:02.731Z,55.70
2023-03-22T01:36:30.957Z,55.60
2023-03-22T01:38:59.284Z,55.60
2023-03-22T01:41:27.602Z,55.80
2023-03-22T01:44:11.364Z,56.00
2023-03-22T01:46:39.494Z,56.30
2023-03-22T01:49:12.274Z,56.00
2023-03-22T01:51:43.796Z,55.90
2023-03-22T01:54:33.332Z,55.80
2023-03-22T01:57:05.116Z,55.90
2023-03-22T01:59:41.785Z,55.80
2023-03-22T02:02:36.316Z,55.90
2023-03-22T02:05:16.577Z,55.90
2023-03-22T02:07:46.100Z,56.00
2023-03-22T02:10:16.660Z,56.40
2023-03-22T02:13:08.075Z,56.20
2023-03-22T02:15:52.802Z,56.10
2023-03-22T02:18:55.247Z,56.10
2023-03-22T02:22:03.915Z,56.00
2023-03-22T02:24:56.645Z,56.30
2023-03-22T02:27:52.783Z,56.10
2023-03-22T02:30:48.072Z,56.80
2023-03-22T02:33:48.861Z,56.30
2023-03-22T02:36:37.924Z,56.60
2023-03-22T02:39:16.639Z,56.60
2023-03-22T02:41:57.113Z,56.60
2023-03-22T02:44:33.647Z,56.70
2023-03-22T02:47:06.541Z,56.80
2023-03-22T02:49:38.834Z,56.60
2023-03-22T02:52:17.590Z,56.70
2023-03-22T02:54:53.802Z,56.90
2023-03-22T02:57:27.324Z,56.80
2023-03-22T02:59:58.894Z,56.80
2023-03-22T03:02:29.118Z,56.80
2023-03-22T03:04:58.227Z,56.90
2023-03-22T03:07:28.725Z,56.80
2023-03-22T03:09:59.019Z,56.90
2023-03-22T03:12:30.158Z,57.00
2023-03-22T03:14:58.836Z,57.00
2023-03-22T03:17:41.436Z,56.80
2023-03-22T03:20:24.270Z,57.00
2023-03-22T03:23:06.097Z,56.90
2023-03-22T03:25:43.400Z,56.80
2023-03-22T03:28:22.868Z,56.70
2023-03-22T03:31:01.180Z,56.60
2023-03-22T03:33:30.975Z,56.70
2023-03-22T03:36:03.161Z,56.60
2023-03-22T03:38:35.505Z,56.80
2023-03-22T03:41:07.773Z,56.90
2023-03-22T03:43:36.529Z,57.00
2023-03-22T03:46:06.324Z,57.00
2023-03-22T03:48:38.147Z,57.10
2023-03-22T03:51:06.452Z,57.20
2023-03-22T03:53:34.609Z,57.20
2023-03-22T03:56:04.052Z,57.30
2023-03-22T03:58:38.260Z,57.30
2023-03-22T04:01:07.126Z,57.30
2023-03-22T04:03:55.401Z,57.50
2023-03-22T04:06:23.631Z,57.40
2023-03-22T04:08:56.552Z,57.50
2023-03-22T04:11:30.223Z,57.50
2023-03-22T04:14:01.562Z,57.40
2023-03-22T04:16:30.495Z,57.90
2023-03-22T04:18:58.598Z,57.50
2023-03-22T04:21:26.715Z,57.50
2023-03-22T04:23:58.686Z,57.50
2023-03-22T04:26:30.560Z,57.60
2023-03-22T04:29:37.172Z,57.60
2023-03-22T04:32:26.194Z,57.60
2023-03-22T04:34:55.804Z,57.80
2023-03-22T04:37:27.132Z,57.80
2023-03-22T04:40:16.531Z,57.80
2023-03-22T04:43:10.252Z,57.90
2023-03-22T04:45:58.251Z,57.90
2023-03-22T04:48:32.642Z,57.90
2023-03-22T04:51:04.085Z,58.00
2023-03-22T04:53:39.408Z,58.40
2023-03-22T04:56:10.970Z,58.60
2023-03-22T04:58:41.202Z,58.40
2023-03-22T05:01:10.086Z,58.30
2023-03-22T05:03:41.124Z,58.30
2023-03-22T05:06:10.428Z,58.30
2023-03-22T05:08:47.522Z,58.30
2023-03-22T05:11:19.457Z,58.20
2023-03-22T05:14:01.148Z,58.30
2023-03-22T05:16:29.845Z,58.30
2023-03-22T05:18:57.792Z,58.20
2023-03-22T05:21:28.386Z,58.50
2023-03-22T05:23:59.679Z,59.00
2023-03-22T05:26:28.297Z,58.70
2023-03-22T05:28:57.597Z,58.60
2023-03-22T05:31:42.226Z,58.50
2023-03-22T05:34:10.522Z,58.70
2023-03-22T05:36:40.619Z,58.80
2023-03-22T05:39:29.561Z,58.80
2023-03-22T05:41:58.738Z,58.70
2023-03-22T05:44:26.845Z,58.80
2023-03-22T05:47:16.143Z,58.60
2023-03-22T05:49:56.713Z,58.90
2023-03-22T05:52:26.260Z,58.70
2023-03-22T05:55:18.582Z,59.20
2023-03-22T05:57:51.507Z,58.90
2023-03-22T06:00:21.818Z,58.90
2023-03-22T06:03:09.804Z,58.90
2023-03-22T06:05:43.006Z,58.80
2023-03-22T06:08:11.552Z,58.90
2023-03-22T06:10:39.780Z,58.90
2023-03-22T06:13:08.090Z,58.90
2023-03-22T06:15:36.151Z,59.20
2023-03-22T06:18:10.642Z,59.40
2023-03-22T06:20:43.134Z,58.90
2023-03-22T06:23:17.297Z,58.80
2023-03-22T06:25:47.396Z,58.80
2023-03-22T06:28:16.836Z,58.80
2023-03-22T06:30:51.488Z,58.80
2023-03-22T06:33:43.348Z,58.80
2023-03-22T06:36:24.011Z,58.80
2023-03-22T06:39:14.754Z,58.70
2023-03-22T06:41:45.619Z,58.70
2023-03-22T06:44:13.786Z,58.70
2023-03-22T06:47:03.973Z,58.70
2023-03-22T06:49:47.620Z,58.60
2023-03-22T06:52:21.134Z,58.50
2023-03-22T06:54:49.299Z,58.40
2023-03-22T06:57:17.348Z,58.40
2023-03-22T06:59:45.209Z,58.30
2023-03-22T07:02:14.589Z,58.20
2023-03-22T07:04:52.904Z,58.20
2023-03-22T07:07:21.068Z,58.00
2023-03-22T07:09:49.913Z,58.00
2023-03-22T07:12:18.718Z,57.90
2023-03-22T07:14:47.941Z,57.80
2023-03-22T07:17:32.706Z,57.80
2023-03-22T07:20:02.114Z,57.60
2023-03-22T07:22:30.574Z,57.60
2023-03-22T07:25:01.295Z,57.60
2023-03-22T07:27:31.722Z,57.50
2023-03-22T07:30:00.440Z,57.60
2023-03-22T07:32:29.617Z,57.70
2023-03-22T07:35:07.126Z,57.50
2023-03-22T07:37:35.414Z,57.70
2023-03-22T07:40:07.475Z,57.70
2023-03-22T07:42:37.158Z,57.60
2023-03-22T07:45:25.066Z,57.60
2023-03-22T07:48:12.327Z,57.70
2023-03-22T07:51:01.832Z,57.50
2023-03-22T07:53:30.615Z,57.40
2023-03-22T07:55:58.728Z,57.70
2023-03-22T07:58:26.802Z,57.00
2023-03-22T08:00:55.042Z,56.70
2023-03-22T08:03:45.557Z,56.50
2023-03-22T08:06:33.875Z,56.20
2023-03-22T08:09:02.017Z,56.20
2023-03-22T08:11:30.005Z,56.40
2023-03-22T08:13:59.906Z,56.80
2023-03-22T08:16:28.565Z,56.90
2023-03-22T08:18:57.878Z,57.00
2023-03-22T08:21:28.319Z,56.60
2023-03-22T08:23:59.180Z,56.10
2023-03-22T08:26:51.278Z,55.80
2023-03-22T08:29:29.470Z,55.60
2023-03-22T08:32:02.166Z,55.40
2023-03-22T08:34:31.256Z,55.40
2023-03-22T08:36:59.343Z,55.20
2023-03-22T08:39:28.652Z,55.30
2023-03-22T08:42:17.768Z,55.20
2023-03-22T08:44:46.035Z,55.50
2023-03-22T08:47:14.636Z,55.30
2023-03-22T08:49:44.046Z,54.90
2023-03-22T08:52:26.562Z,54.50
2023-03-22T08:55:10.556Z,54.40
2023-03-22T08:57:58.893Z,53.70
2023-03-22T09:00:47.415Z,53.50
2023-03-22T09:03:38.170Z,53.50
2023-03-22T09:06:06.893Z,53.60
2023-03-22T09:08:38.617Z,53.30
2023-03-22T09:11:13.320Z,53.50
2023-03-22T09:13:43.220Z,53.50
2023-03-22T09:16:11.711Z,53.70
2023-03-22T09:18:41.116Z,53.70
2023-03-22T09:21:17.086Z,53.80
2023-03-22T09:24:05.737Z,53.90
2023-03-22T09:26:42.588Z,54.00
2023-03-22T09:29:11.132Z,53.70
2023-03-22T09:31:41.219Z,53.60
2023-03-22T09:34:17.944Z,52.80
2023-03-22T09:36:47.522Z,53.50
2023-03-22T09:39:18.345Z,53.20
2023-03-22T09:41:55.822Z,54.20
2023-03-22T09:44:29.991Z,55.10
2023-03-22T09:47:00.919Z,56.00
2023-03-22T09:49:50.479Z,54.50
2023-03-22T09:52:21.326Z,54.50
2023-03-22T09:54:51.534Z,51.80
2023-03-22T09:57:29.114Z,53.80
2023-03-22T10:00:11.138Z,53.70
2023-03-22T10:02:54.275Z,52.10
2023-03-22T10:05:29.865Z,51.20
2023-03-22T10:08:15.658Z,49.80
2023-03-22T10:10:44.068Z,48.50
2023-03-22T10:13:20.043Z,47.90
2023-03-22T10:15:51.543Z,46.20
2023-03-22T10:18:22.759Z,46.30
2023-03-22T10:20:56.985Z,45.30
2023-03-22T10:23:30.974Z,45.70
2023-03-22T10:26:01.046Z,45.60
2023-03-22T10:28:37.875Z,45.40
2023-03-22T10:31:06.930Z,42.50
2023-03-22T10:33:49.989Z,41.70
2023-03-22T10:36:23.704Z,42.10
2023-03-22T10:38:55.637Z,42.00
2023-03-22T10:41:26.190Z,42.10
2023-03-22T10:43:59.529Z,42.20
2023-03-22T10:46:32.897Z,42.10
2023-03-22T10:49:01.899Z,42.00
2023-03-22T10:51:33.512Z,40.50
2023-03-22T10:54:03.213Z,40.80
2023-03-22T10:56:31.403Z,40.90
2023-03-22T10:59:00.665Z,40.30
2023-03-22T11:01:32.299Z,39.30
2023-03-22T11:04:06.722Z,37.10
2023-03-22T11:06:39.355Z,38.00
2023-03-22T11:09:13.199Z,37.80
2023-03-22T11:11:49.366Z,36.90
2023-03-22T11:14:25.501Z,37.70
2023-03-22T11:16:56.459Z,37.20
2023-03-22T11:19:27.983Z,37.00
2023-03-22T11:21:57.473Z,37.40
2023-03-22T11:24:27.550Z,38.20
2023-03-22T11:27:04.966Z,37.10
2023-03-22T11:29:43.642Z,38.40
2023-03-22T11:32:23.054Z,38.00
2023-03-22T11:35:00.912Z,37.80
2023-03-22T11:37:29.535Z,38.60
2023-03-22T11:40:01.723Z,38.10
2023-03-22T11:42:29.909Z,37.80
2023-03-22T11:44:59.225Z,37.70
2023-03-22T11:47:29.324Z,36.90
2023-03-22T11:49:57.620Z,37.70
2023-03-22T11:52:27.979Z,37.40
2023-03-22T11:54:56.996Z,36.50
2023-03-22T11:57:28.019Z,37.50
2023-03-22T12:00:01.923Z,37.80
2023-03-22T12:02:36.880Z,37.60
2023-03-22T12:05:09.313Z,36.40
2023-03-22T12:07:39.419Z,36.60
2023-03-22T12:10:14.485Z,35.40
2023-03-22T12:12:47.771Z,36.50
2023-03-22T12:15:22.278Z,36.30
2023-03-22T12:17:56.181Z,36.40
2023-03-22T12:20:35.833Z,37.30
2023-03-22T12:23:10.815Z,37.10
2023-03-22T12:25:41.745Z,37.60
2023-03-22T12:28:14.230Z,37.50
2023-03-22T12:30:46.044Z,37.30
2023-03-22T12:33:21.971Z,36.80
2023-03-22T12:35:56.371Z,36.30
2023-03-22T12:38:29.698Z,36.60
2023-03-22T12:41:02.236Z,36.40
2023-03-22T12:43:42.371Z,36.00
2023-03-22T12:46:18.993Z,35.90
2023-03-22T12:48:50.337Z,35.80
2023-03-22T12:51:18.703Z,35.90
2023-03-22T12:53:48.901Z,36.10
2023-03-22T12:56:19.580Z,35.20
2023-03-22T12:58:50.488Z,35.70
2023-03-22T13:01:28.882Z,35.70
2023-03-22T13:03:57.845Z,35.40
2023-03-22T13:06:57.576Z,35.70
2023-03-22T13:09:41.878Z,33.90
2023-03-22T13:12:37.141Z,34.30
2023-03-22T13:15:41.423Z,33.90
2023-03-22T13:18:40.820Z,34.50
2023-03-22T13:21:17.740Z,34.30
2023-03-22T13:23:57.727Z,34.40
2023-03-22T13:26:33.229Z,34.80
2023-03-22T13:29:03.250Z,35.00
2023-03-22T13:31:38.452Z,35.40
2023-03-22T13:34:16.022Z,35.20
2023-03-22T13:36:56.284Z,35.40
2023-03-22T13:39:27.466Z,35.60
2023-03-22T13:42:10.517Z,35.90
2023-03-22T13:44:42.970Z,36.20
2023-03-22T13:47:36.105Z,36.60
2023-03-22T13:50:12.541Z,36.50
2023-03-22T13:52:45.735Z,36.50
2023-03-22T13:55:41.464Z,36.90
2023-03-22T13:58:32.962Z,36.70
2023-03-22T14:01:01.940Z,37.10
2023-03-22T14:03:32.581Z,37.40
2023-03-22T14:06:12.903Z,37.60
2023-03-22T14:08:44.977Z,37.70
2023-03-22T14:11:24.901Z,38.00
2023-03-22T14:13:57.991Z,38.20
2023-03-22T14:16:36.864Z,38.30
2023-03-22T14:19:07.342Z,38.20
2023-03-22T14:21:38.525Z,38.30
